createdAt,value
2023-02-09T00:01:34.573Z,38.90
2023-02-09T00:04:02.094Z,38.20
2023-02-09T00:06:29.958Z,39.40
2023-02-09T00:08:57.875Z,38.60
2023-02-09T00:11:47.654Z,35.80
2023-02-09T00:14:16.487Z,34.70
2023-02-09T00:16:45.246Z,34.00
2023-02-09T00:19:13.053Z,31.40
2023-02-09T00:21:40.129Z,29.60
2023-02-09T00:24:07.330Z,29.70
2023-02-09T00:26:34.117Z,28.50
2023-02-09T00:29:00.926Z,28.10
2023-02-09T00:31:27.836Z,28.10
2023-02-09T00:33:54.842Z,24.70
2023-02-09T00:36:21.734Z,23.30
2023-02-09T00:38:50.837Z,22.60
2023-02-09T00:41:17.815Z,21.80
2023-02-09T00:43:45.673Z,21.00
2023-02-09T00:46:14.492Z,21.10
2023-02-09T00:48:41.983Z,21.60
2023-02-09T00:51:08.780Z,22.10
2023-02-09T00:53:35.979Z,23.50
2023-02-09T00:56:02.832Z,23.80
2023-02-09T00:58:29.795Z,24.50
2023-02-09T01:00:56.802Z,24.50
2023-02-09T01:03:23.659Z,25.20
2023-02-09T01:05:50.501Z,26.80
2023-02-09T01:08:17.693Z,24.20
2023-02-09T01:10:46.810Z,25.20
2023-02-09T01:13:14.683Z,25.50
2023-02-09T01:15:42.153Z,26.60
2023-02-09T01:18:09.310Z,25.80
2023-02-09T01:20:36.530Z,26.00
2023-02-09T01:23:03.647Z,25.50
2023-02-09T01:25:30.841Z,24.10
2023-02-09T01:27:59.315Z,23.20
2023-02-09T01:30:26.671Z,22.70
2023-02-09T01:32:56.165Z,22.70
2023-02-09T01:35:23.153Z,23.90
2023-02-09T01:37:49.983Z,23.30
2023-02-09T01:40:17.152Z,23.60
2023-02-09T01:42:44.585Z,22.70
2023-02-09T01:45:24.558Z,24.10
2023-02-09T01:47:56.274Z,23.40
2023-02-09T01:50:29.430Z,25.00
2023-02-09T01:52:57.522Z,27.10
2023-02-09T01:55:26.353Z,27.00
2023-02-09T01:58:14.330Z,27.90
2023-02-09T02:00:41.237Z,26.60
2023-02-09T02:03:11.587Z,25.50
2023-02-09T02:05:40.799Z,23.90
2023-02-09T02:08:17.680Z,25.60
2023-02-09T02:10:44.775Z,25.70
2023-02-09T02:13:12.111Z,26.10
2023-02-09T02:15:57.310Z,26.70
2023-02-09T02:19:14.829Z,24.90
2023-02-09T02:21:56.497Z,23.90
2023-02-09T02:25:00.874Z,26.50
2023-02-09T02:27:36.073Z,26.10
2023-02-09T02:30:34.693Z,25.60
2023-02-09T02:33:26.192Z,25.70
2023-02-09T02:38:38.606Z,23.80
2023-02-09T02:41:17.500Z,25.90
2023-02-09T02:43:59.551Z,25.90
2023-02-09T02:46:41.582Z,27.50
2023-02-09T02:49:15.284Z,25.60
2023-02-09T02:51:43.460Z,28.00
2023-02-09T02:54:20.513Z,27.80
2023-02-09T02:56:50.672Z,28.60
2023-02-09T02:59:20.744Z,28.10
2023-02-09T03:02:21.877Z,27.30
2023-02-09T03:04:52.289Z,27.30
2023-02-09T03:07:19.151Z,26.60
2023-02-09T03:09:53.695Z,27.60
2023-02-09T03:12:47.534Z,27.40
2023-02-09T03:15:31.625Z,25.90
2023-02-09T03:17:58.540Z,26.70
2023-02-09T03:20:42.339Z,27.40
2023-02-09T03:23:14.728Z,26.90
2023-02-09T03:25:44.288Z,26.10
2023-02-09T03:28:16.801Z,26.50
2023-02-09T03:30:44.830Z,26.30
2023-02-09T03:33:26.385Z,25.60
2023-02-09T03:35:55.194Z,25.80
2023-02-09T03:38:22.281Z,27.00
2023-02-09T03:40:49.662Z,27.20
2023-02-09T03:43:16.758Z,25.50
2023-02-09T03:45:43.804Z,27.70
2023-02-09T03:48:10.860Z,28.10
2023-02-09T03:50:38.282Z,25.80
2023-02-09T03:53:06.613Z,26.40
2023-02-09T03:55:33.634Z,25.30
2023-02-09T03:58:00.399Z,25.80
2023-02-09T04:00:27.381Z,23.90
2023-02-09T04:02:54.248Z,26.40
2023-02-09T04:05:22.443Z,24.10
2023-02-09T04:07:55.669Z,24.10
2023-02-09T04:10:22.530Z,24.80
2023-02-09T04:12:50.055Z,25.00
2023-02-09T04:15:17.958Z,23.70
2023-02-09T04:17:44.836Z,24.90
2023-02-09T04:20:11.658Z,25.30
2023-02-09T04:22:39.609Z,25.50
2023-02-09T04:25:06.723Z,26.40
2023-02-09T04:27:34.551Z,26.50
2023-02-09T04:30:01.323Z,25.40
2023-02-09T04:32:28.175Z,24.30
2023-02-09T04:34:55.007Z,23.80
2023-02-09T04:37:21.776Z,24.60
2023-02-09T04:39:48.704Z,25.60
2023-02-09T04:42:15.556Z,25.30
2023-02-09T04:44:43.164Z,23.70
2023-02-09T04:47:10.031Z,25.60
2023-02-09T04:49:37.321Z,25.70
2023-02-09T04:52:04.232Z,24.70
2023-02-09T04:54:31.154Z,23.70
2023-02-09T04:57:18.123Z,25.00
2023-02-09T04:59:45.117Z,24.90
2023-02-09T05:02:11.942Z,24.40
2023-02-09T05:04:38.699Z,25.00
2023-02-09T05:07:09.794Z,24.80
2023-02-09T05:09:37.311Z,24.20
2023-02-09T05:12:04.476Z,26.80
2023-02-09T05:14:31.805Z,28.80
2023-02-09T05:16:59.270Z,26.50
2023-02-09T05:19:26.101Z,25.10
2023-02-09T05:21:52.926Z,28.40
2023-02-09T05:24:19.727Z,26.60
2023-02-09T05:26:46.522Z,29.40
2023-02-09T05:29:13.394Z,30.70
2023-02-09T05:31:40.664Z,31.00
2023-02-09T05:34:07.601Z,30.70
2023-02-09T05:36:34.638Z,29.90
2023-02-09T05:39:01.746Z,30.80
2023-02-09T05:41:47.464Z,30.20
2023-02-09T05:44:14.310Z,30.90
2023-02-09T05:46:41.423Z,29.10
2023-02-09T05:49:09.193Z,31.00
2023-02-09T05:51:36.226Z,30.70
2023-02-09T05:54:03.253Z,32.20
2023-02-09T05:56:30.397Z,31.30
2023-02-09T05:58:57.326Z,33.00
2023-02-09T06:01:24.207Z,32.60
2023-02-09T06:03:51.172Z,33.40
2023-02-09T06:06:18.008Z,32.60
2023-02-09T06:08:45.288Z,32.20
2023-02-09T06:11:14.592Z,30.80
2023-02-09T06:13:41.604Z,31.60
2023-02-09T06:16:08.785Z,33.30
2023-02-09T06:18:35.820Z,31.30
2023-02-09T06:21:03.062Z,31.50
2023-02-09T06:23:30.368Z,34.70
2023-02-09T06:25:57.185Z,34.80
2023-02-09T06:28:24.460Z,34.80
2023-02-09T06:30:52.740Z,37.30
2023-02-09T06:33:19.797Z,37.70
2023-02-09T06:35:52.296Z,38.00
2023-02-09T06:38:19.335Z,34.10
2023-02-09T06:40:47.013Z,31.80
2023-02-09T06:43:14.234Z,30.40
2023-02-09T06:45:41.289Z,32.50
2023-02-09T06:48:08.256Z,32.20
2023-02-09T06:50:35.897Z,30.20
2023-02-09T06:53:02.910Z,33.80
2023-02-09T06:55:29.919Z,35.00
2023-02-09T06:57:56.825Z,38.80
2023-02-09T07:00:23.602Z,42.60
2023-02-09T07:02:52.626Z,41.70
2023-02-09T07:05:20.601Z,39.30
2023-02-09T07:07:47.444Z,37.50
2023-02-09T07:10:15.848Z,35.50
2023-02-09T07:12:43.306Z,32.20
2023-02-09T07:15:10.957Z,30.30
2023-02-09T07:17:39.267Z,26.90
2023-02-09T07:20:08.514Z,26.00
2023-02-09T07:22:35.430Z,25.40
2023-02-09T07:25:02.277Z,21.70
2023-02-09T07:27:29.374Z,25.30
2023-02-09T07:29:56.483Z,25.50
2023-02-09T07:32:23.987Z,26.00
2023-02-09T07:34:50.808Z,24.50
2023-02-09T07:37:17.910Z,23.30
2023-02-09T07:39:44.789Z,25.20
2023-02-09T07:42:11.903Z,25.40
2023-02-09T07:44:48.864Z,24.70
2023-02-09T07:47:15.646Z,24.80
2023-02-09T07:49:42.611Z,23.90
2023-02-09T07:52:09.499Z,25.10
2023-02-09T07:54:37.022Z,25.70
2023-02-09T07:57:03.811Z,25.40
2023-02-09T07:59:30.822Z,24.00
2023-02-09T08:01:57.784Z,25.20
2023-02-09T08:04:24.578Z,25.60
2023-02-09T08:06:52.728Z,24.80
2023-02-09T08:09:19.574Z,25.00
2023-02-09T08:12:02.127Z,24.40
2023-02-09T08:14:36.079Z,24.70
2023-02-09T08:17:20.886Z,23.20
2023-02-09T08:20:15.304Z,23.60
2023-02-09T08:22:46.098Z,25.20
2023-02-09T08:25:19.092Z,25.10
2023-02-09T08:27:46.118Z,25.20
2023-02-09T08:30:14.153Z,24.30
2023-02-09T08:32:41.572Z,24.10
2023-02-09T08:35:08.462Z,24.40
2023-02-09T08:37:36.428Z,24.80
2023-02-09T08:40:03.457Z,25.50
2023-02-09T08:42:30.891Z,25.50
2023-02-09T08:44:58.711Z,25.40
2023-02-09T08:47:25.532Z,24.00
2023-02-09T08:49:52.326Z,24.40
2023-02-09T08:52:19.504Z,23.30
2023-02-09T08:54:46.519Z,25.10
2023-02-09T08:57:13.449Z,23.30
2023-02-09T08:59:40.253Z,23.80
2023-02-09T09:02:07.126Z,23.80
2023-02-09T09:04:33.995Z,25.70
2023-02-09T09:07:00.812Z,26.20
2023-02-09T09:09:27.598Z,23.20
2023-02-09T09:11:54.393Z,23.60
2023-02-09T09:14:21.750Z,25.40
2023-02-09T09:16:49.248Z,26.50
2023-02-09T09:19:16.044Z,25.10
2023-02-09T09:21:45.783Z,24.00
2023-02-09T09:24:13.441Z,25.00
2023-02-09T09:26:40.306Z,23.70
2023-02-09T09:29:07.177Z,25.70
2023-02-09T09:31:34.378Z,25.50
2023-02-09T09:34:03.381Z,23.80
2023-02-09T09:36:30.301Z,25.50
2023-02-09T09:38:57.784Z,23.60
2023-02-09T09:41:34.019Z,22.60
2023-02-09T09:44:00.922Z,24.90
2023-02-09T09:46:48.204Z,22.80
2023-02-09T09:49:23.820Z,22.10
2023-02-09T09:52:12.471Z,22.50
2023-02-09T09:54:40.211Z,21.20
2023-02-09T09:57:19.474Z,20.70
2023-02-09T09:59:46.346Z,20.60
2023-02-09T10:02:32.511Z,20.50
2023-02-09T10:05:20.799Z,21.20
2023-02-09T10:08:31.338Z,21.40
2023-02-09T10:11:35.760Z,19.70
2023-02-09T10:14:03.168Z,20.60
2023-02-09T10:16:33.916Z,20.90
2023-02-09T10:19:02.482Z,21.80
2023-02-09T10:21:32.490Z,23.30
2023-02-09T10:23:59.518Z,20.50
2023-02-09T10:26:31.704Z,22.00
2023-02-09T10:29:21.060Z,23.10
2023-02-09T10:31:54.212Z,25.10
2023-02-09T10:34:33.882Z,23.90
2023-02-09T10:37:29.080Z,21.40
2023-02-09T10:40:23.369Z,23.00
2023-02-09T10:42:55.713Z,21.30
2023-02-09T10:45:43.860Z,21.10
2023-02-09T10:48:10.864Z,19.10
2023-02-09T10:50:59.753Z,22.50
2023-02-09T10:53:33.206Z,21.90
2023-02-09T10:56:04.580Z,21.80
2023-02-09T10:58:33.584Z,21.10
2023-02-09T11:01:16.782Z,20.20
2023-02-09T11:04:19.961Z,20.20
2023-02-09T11:07:15.393Z,19.30
2023-02-09T11:09:48.354Z,20.80
2023-02-09T11:12:15.190Z,20.00
2023-02-09T11:14:46.194Z,21.00
2023-02-09T11:17:17.010Z,20.50
2023-02-09T11:19:53.317Z,21.80
2023-02-09T11:22:39.044Z,22.10
2023-02-09T11:25:24.853Z,21.00
2023-02-09T11:28:18.284Z,21.40
2023-02-09T11:31:29.983Z,21.30
2023-02-09T11:34:19.306Z,20.30
2023-02-09T11:37:16.927Z,21.50
2023-02-09T11:39:49.414Z,19.90
2023-02-09T11:42:38.679Z,19.40
2023-02-09T11:45:10.595Z,16.60
2023-02-09T11:47:46.931Z,16.30
2023-02-09T11:50:40.158Z,15.50
2023-02-09T11:53:38.169Z,14.60
2023-02-09T11:56:07.937Z,16.10
2023-02-09T11:58:53.183Z,14.80
2023-02-09T12:01:35.551Z,14.90
2023-02-09T12:04:17.753Z,18.20
2023-02-09T12:06:49.445Z,20.00
2023-02-09T12:09:25.431Z,21.40
2023-02-09T12:12:14.052Z,20.00
2023-02-09T12:14:41.218Z,16.70
2023-02-09T12:17:33.250Z,17.70
2023-02-09T12:20:00.612Z,15.80
2023-02-09T12:22:43.119Z,15.00
2023-02-09T12:25:25.021Z,12.10
2023-02-09T12:28:35.408Z,12.20
2023-02-09T12:31:08.056Z,12.90
2023-02-09T12:33:36.963Z,15.10
2023-02-09T12:36:09.988Z,15.60
2023-02-09T12:38:50.483Z,14.50
2023-02-09T12:41:21.692Z,14.10
2023-02-09T12:43:48.923Z,13.70
2023-02-09T12:46:31.277Z,12.60
2023-02-09T12:49:15.185Z,11.70
2023-02-09T12:51:54.529Z,12.00
2023-02-09T12:54:43.393Z,12.60
2023-02-09T12:57:19.496Z,14.10
2023-02-09T12:59:57.670Z,14.50
2023-02-09T13:02:49.922Z,14.00
2023-02-09T13:08:06.206Z,12.20
2023-02-09T13:10:35.832Z,12.40
2023-02-09T13:13:03.632Z,13.50
2023-02-09T13:15:43.551Z,15.20
2023-02-09T13:18:36.781Z,16.50
2023-02-09T13:24:14.368Z,14.60
2023-02-09T13:26:57.697Z,16.00
2023-02-09T13:29:29.371Z,17.00
2023-02-09T13:32:22.857Z,18.60
2023-02-09T13:35:27.318Z,16.70
2023-02-09T13:38:02.790Z,19.70
2023-02-09T13:40:31.354Z,21.40
2023-02-09T13:43:24.246Z,19.20
2023-02-09T13:45:52.909Z,20.60
2023-02-09T13:48:23.828Z,20.70
2023-02-09T13:50:51.684Z,21.40
2023-02-09T13:53:19.496Z,20.60
2023-02-09T13:55:47.793Z,20.80
2023-02-09T13:58:21.997Z,19.80
2023-02-09T14:00:52.184Z,20.30
2023-02-09T14:03:19.013Z,19.80
2023-02-09T14:06:00.506Z,19.90
2023-02-09T14:08:28.581Z,19.80
2023-02-09T14:11:01.995Z,20.10
2023-02-09T14:13:34.874Z,19.80
2023-02-09T14:16:08.272Z,19.40
2023-02-09T14:18:47.802Z,19.40
2023-02-09T14:21:22.659Z,18.00
2023-02-09T14:24:03.970Z,19.00
2023-02-09T14:26:48.318Z,19.10
2023-02-09T14:29:24.865Z,17.30
2023-02-09T14:32:00.159Z,15.90
2023-02-09T14:34:37.525Z,16.20
2023-02-09T14:37:11.113Z,15.90
2023-02-09T14:40:00.655Z,15.00
2023-02-09T14:42:28.608Z,15.80
2023-02-09T14:44:58.672Z,16.10
2023-02-09T14:47:34.869Z,15.50
2023-02-09T14:50:02.155Z,17.50
2023-02-09T14:52:32.145Z,16.20
2023-02-09T15:07:19.276Z,14.50
2023-02-09T15:09:48.477Z,15.50
2023-02-09T15:12:27.918Z,14.50
2023-02-09T15:14:58.860Z,14.50
2023-02-09T15:17:29.320Z,13.60
2023-02-09T15:19:58.136Z,13.60
2023-02-09T15:22:26.978Z,14.50
2023-02-09T15:24:57.836Z,13.80
2023-02-09T15:27:40.308Z,15.60
2023-02-09T15:30:17.329Z,14.30
2023-02-09T15:32:45.679Z,15.00
2023-02-09T15:35:18.297Z,15.20
2023-02-09T15:37:48.205Z,15.90
2023-02-09T15:40:43.961Z,14.90
2023-02-09T15:43:36.589Z,15.30
2023-02-09T15:46:23.938Z,16.00
2023-02-09T15:48:52.446Z,16.60
2023-02-09T15:51:21.380Z,15.70
2023-02-09T15:53:49.564Z,15.20
2023-02-09T15:56:19.067Z,16.30
2023-02-09T15:58:57.431Z,15.80
2023-02-09T16:01:26.665Z,15.00
2023-02-09T16:04:02.675Z,18.70
2023-02-09T16:06:38.680Z,16.30
2023-02-09T16:09:16.049Z,17.20
2023-02-09T16:11:45.014Z,15.30
2023-02-09T16:14:20.734Z,16.30
2023-02-09T16:16:49.639Z,15.50
2023-02-09T16:19:19.005Z,16.20
2023-02-09T16:21:50.142Z,15.60
2023-02-09T16:24:31.502Z,17.10
2023-02-09T16:27:04.979Z,19.00
2023-02-09T16:29:33.434Z,18.60
2023-02-09T16:32:01.721Z,16.80
2023-02-09T16:34:30.260Z,14.50
2023-02-09T16:36:58.865Z,15.90
2023-02-09T16:39:27.131Z,16.30
2023-02-09T16:41:57.135Z,15.80
2023-02-09T16:44:29.434Z,15.90
2023-02-09T16:46:57.989Z,14.00
2023-02-09T16:49:34.309Z,16.90
2023-02-09T16:52:05.740Z,15.10
2023-02-09T16:54:40.385Z,15.10
2023-02-09T16:57:13.600Z,14.20
2023-02-09T16:59:41.924Z,13.70
2023-02-09T17:02:26.094Z,13.70
2023-02-09T17:04:57.096Z,14.80
2023-02-09T17:07:33.002Z,15.90
2023-02-09T17:10:14.325Z,17.50
2023-02-09T17:12:42.522Z,15.50
2023-02-09T17:15:28.965Z,18.20
2023-02-09T17:18:02.253Z,16.90
2023-02-09T17:20:36.345Z,16.30
2023-02-09T17:23:05.183Z,15.10
2023-02-09T17:25:34.630Z,14.30
2023-02-09T17:28:03.046Z,14.50
2023-02-09T17:30:32.394Z,14.70
2023-02-09T17:33:03.219Z,14.40
2023-02-09T17:36:17.720Z,13.90
2023-02-09T17:38:28.061Z,15.30
2023-02-09T17:40:56.896Z,14.60
2023-02-09T17:43:25.464Z,15.30
2023-02-09T17:45:54.453Z,18.50
2023-02-09T17:48:23.273Z,18.50
2023-02-09T17:50:57.888Z,18.00
2023-02-09T17:53:28.527Z,17.00
2023-02-09T17:55:56.918Z,18.30
2023-02-09T17:58:25.235Z,17.80
2023-02-09T18:00:56.764Z,14.10
2023-02-09T18:03:26.148Z,15.00
2023-02-09T18:05:58.736Z,16.40
2023-02-09T18:08:27.601Z,16.30
2023-02-09T18:10:58.878Z,15.20
2023-02-09T18:13:27.437Z,14.70
2023-02-09T18:15:56.630Z,13.40
2023-02-09T18:18:24.953Z,12.40
2023-02-09T18:20:53.269Z,16.50
2023-02-09T18:23:23.214Z,17.30
2023-02-09T18:25:51.608Z,17.60
2023-02-09T18:28:20.745Z,17.90
2023-02-09T18:30:49.335Z,18.00
2023-02-09T18:33:18.416Z,15.60
2023-02-09T18:35:46.866Z,16.10
2023-02-09T18:38:16.087Z,16.90
2023-02-09T18:40:44.342Z,16.90
2023-02-09T18:43:14.946Z,16.20
2023-02-09T18:45:43.413Z,17.70
2023-02-09T18:48:12.127Z,16.20
2023-02-09T18:50:40.729Z,15.30
2023-02-09T18:53:11.014Z,14.70
2023-02-09T18:55:39.565Z,13.80
2023-02-09T18:58:11.683Z,20.30
2023-02-09T19:00:40.044Z,19.70
2023-02-09T19:03:08.579Z,20.10
2023-02-09T19:05:36.970Z,19.80
2023-02-09T19:08:07.558Z,19.40
2023-02-09T19:10:36.443Z,20.10
2023-02-09T19:13:04.820Z,19.90
2023-02-09T19:15:34.535Z,20.30
2023-02-09T19:18:04.431Z,20.80
2023-02-09T19:20:34.377Z,20.00
2023-02-09T19:23:03.995Z,20.30
2023-02-09T19:25:33.475Z,19.90
2023-02-09T19:28:01.988Z,20.30
2023-02-09T19:30:30.695Z,19.00
2023-02-09T19:33:00.287Z,20.00
2023-02-09T19:35:29.560Z,19.50
2023-02-09T19:37:58.576Z,20.00
2023-02-09T19:40:36.967Z,20.10
2023-02-09T19:43:06.351Z,18.40
2023-02-09T19:45:37.956Z,17.60
2023-02-09T19:50:37.081Z,17.80
2023-02-09T19:53:06.350Z,18.40
2023-02-09T19:55:36.549Z,18.50
2023-02-09T19:58:04.920Z,18.30
2023-02-09T20:00:34.612Z,17.50
2023-02-09T20:03:02.957Z,18.60
2023-02-09T20:05:31.986Z,17.50
2023-02-09T20:08:00.260Z,17.00
2023-02-09T20:10:28.663Z,17.50
2023-02-09T20:12:56.997Z,18.80
2023-02-09T20:15:26.786Z,19.00
2023-02-09T20:17:55.255Z,17.60
2023-02-09T20:20:24.059Z,17.20
2023-02-09T20:22:52.495Z,18.00
2023-02-09T20:25:20.961Z,20.10
2023-02-09T20:27:50.458Z,19.20
2023-02-09T20:30:19.031Z,18.10
2023-02-09T20:32:50.715Z,18.70
2023-02-09T20:35:20.106Z,18.30
2023-02-09T20:37:48.385Z,18.80
2023-02-09T20:40:17.176Z,20.20
2023-02-09T20:43:05.045Z,19.40
2023-02-09T20:45:52.386Z,18.20
2023-02-09T20:48:20.688Z,18.00
2023-02-09T20:50:49.654Z,18.20
2023-02-09T20:53:19.241Z,18.60
2023-02-09T20:55:50.641Z,18.60
2023-02-09T20:58:19.502Z,17.70
2023-02-09T21:00:48.135Z,17.60
2023-02-09T21:03:17.128Z,18.20
2023-02-09T21:08:37.722Z,19.10
2023-02-09T21:11:09.287Z,17.70
2023-02-09T21:13:41.231Z,17.40
2023-02-09T21:16:09.827Z,17.00
2023-02-09T21:18:38.902Z,17.30
2023-02-09T21:21:07.991Z,16.70
2023-02-09T21:23:36.672Z,17.50
2023-02-09T21:26:06.776Z,16.90
2023-02-09T21:28:36.403Z,16.80
2023-02-09T21:31:17.090Z,16.90
2023-02-09T21:33:45.394Z,16.80
2023-02-09T21:36:13.736Z,17.90
2023-02-09T21:38:42.268Z,17.70
2023-02-09T21:41:31.664Z,17.50
2023-02-09T21:43:59.964Z,17.50
2023-02-09T21:46:28.582Z,18.40
2023-02-09T21:48:59.828Z,18.20
2023-02-09T21:51:28.358Z,19.00
2023-02-09T21:53:56.672Z,18.20
2023-02-09T21:56:25.033Z,18.30
2023-02-09T21:58:54.410Z,17.30
2023-02-09T22:01:22.651Z,16.80
2023-02-09T22:03:57.473Z,17.40
2023-02-09T22:06:26.366Z,18.50
2023-02-09T22:08:54.580Z,17.40
2023-02-09T22:11:23.239Z,18.60
2023-02-09T22:13:51.526Z,18.70
2023-02-09T22:16:21.073Z,17.90
2023-02-09T22:18:50.056Z,17.60
2023-02-09T22:21:20.636Z,18.30
2023-02-09T22:23:49.769Z,17.60
2023-02-09T22:26:18.830Z,17.00
2023-02-09T22:28:47.376Z,17.90
2023-02-09T22:31:17.576Z,16.10
2023-02-09T22:33:45.932Z,16.90
2023-02-09T22:36:18.192Z,16.90
2023-02-09T22:38:46.588Z,16.80
2023-02-09T22:41:22.881Z,17.30
2023-02-09T22:43:52.961Z,18.10
2023-02-09T22:46:22.394Z,16.20
2023-02-09T22:48:54.912Z,16.40
2023-02-09T22:51:24.239Z,16.50
2023-02-09T22:53:52.990Z,16.90
2023-02-09T22:56:21.239Z,16.60
2023-02-09T22:58:49.806Z,16.90
2023-02-09T23:01:18.133Z,17.70
2023-02-09T23:03:46.471Z,15.90
2023-02-09T23:06:17.789Z,17.30
2023-02-09T23:08:46.599Z,17.00
2023-02-09T23:11:17.138Z,16.70
2023-02-09T23:13:45.475Z,15.90
2023-02-09T23:16:24.259Z,15.30
2023-02-09T23:18:59.938Z,16.70
2023-02-09T23:21:36.576Z,15.80
2023-02-09T23:24:06.782Z,15.70
2023-02-09T23:26:35.728Z,16.20
2023-02-09T23:29:05.842Z,15.70
2023-02-09T23:31:34.644Z,16.50
2023-02-09T23:34:02.939Z,15.40
2023-02-09T23:36:33.097Z,15.70
2023-02-09T23:39:03.229Z,15.30
2023-02-09T23:41:34.794Z,15.50
2023-02-09T23:44:04.800Z,14.50
2023-02-09T23:46:33.207Z,14.20
2023-02-09T23:49:01.740Z,15.20
2023-02-09T23:51:34.743Z,15.00
2023-02-09T23:54:04.670Z,15.00
2023-02-09T23:56:37.395Z,11.70
2023-02-09T23:59:07.768Z,14.70
